Time;durP1;ratioP1;P1;durP2;ratioP2;P2;SDS_P1;SDS_P2;PMS_P1;PMS_P2;Temp;Humidity;BMP_temperature;BMP_pressure;BME280_temperature;BME280_humidity;BME280_pressure;Samples;Min_cycle;Max_cycle;Signal;HPM_P1;HPM_P2
2022/03/23 00:00:36;;;;;;;;;71.25;54.25;;;;;11.83;50.60;102586.66;5062136;28;45235;-68
2022/03/23 00:03:02;;;;;;;;;69.75;55.00;;;;;11.86;50.24;102591.88;5067673;28;45442;-68
2022/03/23 00:05:28;;;;;;;;;72.50;54.75;;;;;11.85;50.21;102590.13;5066574;28;45534;-66
2022/03/23 00:07:54;;;;;;;;;68.00;52.00;;;;;11.80;50.75;102591.44;5064057;28;47268;-67
2022/03/23 00:10:20;;;;;;;;;75.50;56.50;;;;;11.75;51.14;102589.06;5061871;28;45319;-67
2022/03/23 00:12:45;;;;;;;;;74.00;53.00;;;;;11.76;50.73;102595.41;5063694;28;45306;-67
2022/03/23 00:15:12;;;;;;;;;71.25;53.00;;;;;11.69;50.85;102594.91;5082983;27;45495;-67
2022/03/23 00:17:39;;;;;;;;;71.75;55.50;;;;;11.59;51.56;102593.84;5067402;27;45501;-68
2022/03/23 00:20:05;;;;;;;;;72.00;55.25;;;;;11.57;51.62;102607.56;5062280;28;45381;-68
2022/03/23 00:22:31;;;;;;;;;72.25;56.00;;;;;11.50;51.74;102592.66;5064782;28;45511;-67
2022/03/23 00:24:56;;;;;;;;;69.50;53.25;;;;;11.54;51.69;102601.47;5072636;28;45441;-68
2022/03/23 00:27:23;;;;;;;;;71.25;55.25;;;;;11.49;51.85;102592.75;5074019;28;45383;-68
2022/03/23 00:29:48;;;;;;;;;71.75;53.50;;;;;11.47;51.80;102611.06;5082212;28;45267;-66
2022/03/23 00:32:14;;;;;;;;;71.00;54.25;;;;;11.38;52.00;102607.13;5076882;28;45213;-67
2022/03/23 00:34:39;;;;;;;;;74.50;55.00;;;;;11.33;52.17;102609.28;5065851;28;45581;-68
2022/03/23 00:37:05;;;;;;;;;73.50;55.75;;;;;11.25;52.77;102607.09;5072025;28;46793;-68
2022/03/23 00:39:30;;;;;;;;;68.00;51.25;;;;;11.20;52.88;102609.28;5070016;28;45383;-68
2022/03/23 00:41:56;;;;;;;;;73.75;55.75;;;;;11.14;52.47;102606.13;5070614;28;45299;-68
2022/03/23 00:44:22;;;;;;;;;74.50;55.50;;;;;11.10;53.19;102612.78;5075130;28;45439;-67
2022/03/23 00:46:47;;;;;;;;;66.50;50.00;;;;;11.03;53.42;102606.00;5069086;28;45435;-68
2022/03/23 00:49:13;;;;;;;;;68.25;53.00;;;;;10.97;53.51;102607.28;5072320;28;45474;-68
2022/03/23 00:51:39;;;;;;;;;71.00;54.00;;;;;10.91;53.07;102602.28;5067887;28;45315;-66
2022/03/23 00:54:04;;;;;;;;;79.25;54.50;;;;;10.93;53.38;102600.34;5077102;28;45492;-66
2022/03/23 00:56:30;;;;;;;;;70.75;54.00;;;;;10.97;52.97;102609.13;5075239;28;46573;-67
2022/03/23 00:58:55;;;;;;;;;72.75;53.50;;;;;10.98;52.68;102602.72;5065089;28;45480;-67
2022/03/23 01:01:21;;;;;;;;;73.50;55.00;;;;;10.97;53.09;102611.84;5067615;28;46012;-68
2022/03/23 01:03:47;;;;;;;;;77.00;55.75;;;;;10.95;53.14;102613.84;5063951;28;45331;-67
2022/03/23 01:06:13;;;;;;;;;69.00;52.50;;;;;10.89;53.36;102615.97;5070289;28;45643;-68
2022/03/23 01:08:38;;;;;;;;;69.25;52.00;;;;;10.81;53.69;102604.75;5071098;28;45287;-67
2022/03/23 01:11:05;;;;;;;;;71.25;52.25;;;;;10.82;53.26;102606.50;5081621;28;45531;-68
2022/03/23 01:13:31;;;;;;;;;73.50;56.25;;;;;10.80;53.45;102605.75;5072488;28;45454;-67
2022/03/23 01:15:57;;;;;;;;;74.00;55.00;;;;;10.75;53.81;102607.88;5097934;27;48206;-65
2022/03/23 01:18:22;;;;;;;;;75.75;57.25;;;;;10.69;53.52;102597.44;5066441;28;45341;-67
2022/03/23 01:20:47;;;;;;;;;73.00;54.25;;;;;10.70;53.81;102596.47;5063688;28;45259;-67
2022/03/23 01:23:13;;;;;;;;;73.00;54.00;;;;;10.68;53.39;102598.41;5074163;28;45325;-66
2022/03/23 01:25:38;;;;;;;;;73.75;55.00;;;;;10.60;54.08;102605.34;5064465;28;45320;-68
2022/03/23 01:28:04;;;;;;;;;72.75;55.00;;;;;10.49;54.59;102606.94;5080097;27;45389;-68
2022/03/23 01:30:29;;;;;;;;;70.00;54.00;;;;;10.52;54.83;102611.28;5085144;28;45251;-68
2022/03/23 01:32:55;;;;;;;;;69.75;51.75;;;;;10.43;54.57;102599.22;5070307;28;45642;-67
2022/03/23 01:35:20;;;;;;;;;70.75;54.50;;;;;10.39;54.65;102596.78;5064227;28;45311;-67
2022/03/23 01:37:46;;;;;;;;;69.75;53.50;;;;;10.38;55.01;102608.63;5068991;28;45364;-67
2022/03/23 01:40:12;;;;;;;;;69.25;51.50;;;;;10.34;55.00;102602.53;5085057;28;45321;-67
2022/03/23 01:42:39;;;;;;;;;69.50;52.75;;;;;10.33;54.95;102600.78;5069778;28;45755;-68
2022/03/23 01:45:06;;;;;;;;;68.50;54.75;;;;;10.34;54.76;102596.22;5084011;28;45585;-68
2022/03/23 01:47:32;;;;;;;;;69.75;55.00;;;;;10.29;54.75;102601.97;5073125;28;45548;-67
2022/03/23 01:49:58;;;;;;;;;79.75;57.25;;;;;10.29;54.46;102601.09;5064438;28;45479;-65
2022/03/23 01:52:26;;;;;;;;;72.50;53.25;;;;;10.24;54.89;102593.22;5066350;28;45536;-67
2022/03/23 01:54:52;;;;;;;;;72.50;54.00;;;;;10.25;54.61;102591.38;5064118;28;45343;-68
2022/03/23 01:57:19;;;;;;;;;71.25;53.75;;;;;10.26;54.46;102595.84;5069330;28;45365;-65
2022/03/23 01:59:44;;;;;;;;;73.50;55.75;;;;;10.25;55.12;102591.38;5069365;28;45377;-68
2022/03/23 02:02:10;;;;;;;;;75.50;56.25;;;;;10.18;55.25;102598.19;5067003;28;45448;-67
2022/03/23 02:04:36;;;;;;;;;69.25;52.75;;;;;10.08;55.60;102590.63;5072872;28;47680;-67
2022/03/23 02:07:03;;;;;;;;;69.50;54.00;;;;;10.06;55.28;102597.13;5066453;28;45471;-66
2022/03/23 02:09:29;;;;;;;;;63.25;51.50;;;;;10.05;55.66;102596.25;5063791;28;45460;-66
2022/03/23 02:11:56;;;;;;;;;69.50;53.00;;;;;10.01;55.53;102594.69;5065027;28;45744;-66
2022/03/23 02:14:22;;;;;;;;;72.25;53.50;;;;;10.01;55.60;102593.81;5078900;28;48025;-67
2022/03/23 02:16:50;;;;;;;;;74.25;53.00;;;;;9.95;55.61;102595.09;5067650;28;45635;-66
2022/03/23 02:19:16;;;;;;;;;66.75;53.25;;;;;9.89;55.43;102584.66;5068209;28;45264;-66
2022/03/23 02:21:46;;;;;;;;;73.25;53.75;;;;;9.84;56.24;102589.50;5066078;28;45376;-66
2022/03/23 02:24:13;;;;;;;;;73.75;52.75;;;;;9.85;55.90;102598.53;5075572;28;45370;-67
2022/03/23 02:26:39;;;;;;;;;69.25;53.00;;;;;9.80;55.44;102596.09;5074590;28;45437;-66
2022/03/23 02:29:04;;;;;;;;;71.50;53.50;;;;;9.77;56.13;102586.31;5078787;27;45461;-66
2022/03/23 02:31:30;;;;;;;;;74.50;55.00;;;;;9.74;56.09;102591.06;5076546;28;45342;-66
2022/03/23 02:33:55;;;;;;;;;72.25;53.75;;;;;9.78;55.75;102598.06;5071597;28;45516;-66
2022/03/23 02:36:21;;;;;;;;;67.25;49.25;;;;;9.77;55.47;102596.31;5065329;28;45412;-66
2022/03/23 02:38:46;;;;;;;;;75.50;56.50;;;;;9.71;56.13;102597.59;5072015;28;45342;-66
2022/03/23 02:41:13;;;;;;;;;76.00;53.00;;;;;9.71;55.55;102596.72;5066468;28;45499;-66
2022/03/23 02:43:38;;;;;;;;;68.75;54.25;;;;;9.72;55.91;102598.41;5072507;28;46117;-66
2022/03/23 02:46:05;;;;;;;;;75.50;55.25;;;;;9.72;55.32;102603.84;5064318;28;45375;-66
2022/03/23 02:48:30;;;;;;;;;72.25;53.25;;;;;9.70;55.84;102600.38;5072348;28;45368;-66
2022/03/23 02:50:56;;;;;;;;;66.50;51.50;;;;;9.65;56.44;102597.06;5064922;28;45489;-66
2022/03/23 03:01:59;;;;;;;;;73.75;52.50;;;;;9.59;55.93;102609.19;5076487;28;45373;-67
2022/03/23 03:04:24;;;;;;;;;67.00;51.50;;;;;9.56;56.11;102613.97;5071694;28;48574;-66
2022/03/23 03:06:50;;;;;;;;;64.75;50.50;;;;;9.51;56.00;102591.66;5066313;27;45254;-66
2022/03/23 03:09:16;;;;;;;;;63.00;49.00;;;;;9.47;56.32;102599.13;5063281;28;45234;-67
2022/03/23 03:11:43;;;;;;;;;60.50;49.00;;;;;9.50;54.75;102614.31;5064368;28;45538;-66
2022/03/23 03:14:10;;;;;;;;;59.00;45.00;;;;;9.52;53.09;102613.25;5075354;28;45511;-66
2022/03/23 03:16:35;;;;;;;;;52.25;39.75;;;;;9.58;51.14;102610.16;5075120;28;45380;-66
2022/03/23 03:19:05;;;;;;;;;43.50;36.00;;;;;9.67;51.87;102612.28;5065060;28;45814;-66
2022/03/23 03:21:30;;;;;;;;;45.75;39.25;;;;;9.68;52.81;102622.19;5064979;28;45436;-66
2022/03/23 03:23:55;;;;;;;;;49.25;39.25;;;;;9.70;50.75;102620.25;5071828;28;45380;-66
2022/03/23 03:26:21;;;;;;;;;45.25;36.00;;;;;9.69;49.98;102612.22;5065384;28;45317;-66
2022/03/23 03:28:49;;;;;;;;;45.75;36.00;;;;;9.79;48.82;102620.66;5083760;27;45468;-66
2022/03/23 03:31:15;;;;;;;;;40.25;31.00;;;;;9.84;48.06;102616.66;5079958;28;45373;-66
2022/03/23 03:33:41;;;;;;;;;42.00;34.25;;;;;9.90;48.89;102629.84;5065587;28;45338;-66
2022/03/23 03:36:07;;;;;;;;;40.50;35.25;;;;;9.87;49.05;102634.56;5066647;28;45866;-66
2022/03/23 03:38:34;;;;;;;;;35.00;32.50;;;;;9.92;47.93;102638.78;5070660;28;45390;-66
2022/03/23 03:41:01;;;;;;;;;36.50;30.50;;;;;9.94;48.18;102633.22;5064947;28;45180;-67
2022/03/23 03:43:27;;;;;;;;;27.75;24.00;;;;;9.99;47.32;102637.41;5071964;28;45443;-66
2022/03/23 03:45:53;;;;;;;;;35.25;28.00;;;;;10.01;46.59;102630.00;5063132;28;45479;-67
2022/03/23 03:48:19;;;;;;;;;32.00;30.00;;;;;10.03;46.63;102638.06;5064206;28;45408;-66
2022/03/23 03:50:45;;;;;;;;;29.75;28.00;;;;;9.99;47.85;102631.09;5062090;28;45323;-66
2022/03/23 03:53:10;;;;;;;;;37.25;32.00;;;;;10.00;47.51;102641.88;5064362;28;45341;-67
2022/03/23 03:55:37;;;;;;;;;33.00;30.50;;;;;10.03;45.74;102646.22;5061071;28;45334;-66
2022/03/23 03:58:03;;;;;;;;;31.75;30.50;;;;;10.04;45.53;102646.13;5067963;28;45697;-66
2022/03/23 04:00:30;;;;;;;;;26.75;26.00;;;;;10.11;45.39;102647.47;5073179;28;45324;-67
2022/03/23 04:02:55;;;;;;;;;28.25;28.25;;;;;10.14;45.50;102644.56;5076594;27;45407;-67
2022/03/23 04:05:21;;;;;;;;;27.75;25.00;;;;;10.15;44.51;102643.56;5069707;28;45375;-67
2022/03/23 04:07:46;;;;;;;;;27.25;25.00;;;;;10.14;44.80;102647.28;5068115;28;45516;-66
2022/03/23 04:10:11;;;;;;;;;30.00;28.00;;;;;10.13;44.83;102642.81;5064768;28;45327;-67
2022/03/23 04:12:39;;;;;;;;;28.50;24.50;;;;;10.18;44.60;102649.81;5071176;28;46738;-66
2022/03/23 04:15:05;;;;;;;;;28.50;23.75;;;;;10.16;44.63;102653.47;5070124;28;45433;-67
2022/03/23 04:17:30;;;;;;;;;33.75;29.00;;;;;10.19;44.16;102655.16;5072634;28;45405;-66
2022/03/23 04:19:56;;;;;;;;;35.25;28.75;;;;;10.15;44.30;102657.13;5066884;27;45302;-67
2022/03/23 04:22:21;;;;;;;;;35.75;30.25;;;;;10.14;44.52;102660.84;5071868;28;45988;-67
2022/03/23 04:24:47;;;;;;;;;32.00;26.75;;;;;10.13;44.33;102653.69;5068368;28;45346;-66
2022/03/23 04:27:12;;;;;;;;;21.00;18.00;;;;;10.12;44.11;102662.78;5070382;28;45469;-66
2022/03/23 04:29:39;;;;;;;;;34.75;27.50;;;;;10.10;44.26;102658.41;5089344;27;45568;-67
2022/03/23 04:32:05;;;;;;;;;27.75;26.50;;;;;10.10;44.31;102670.16;5077921;28;45531;-68
2022/03/23 04:34:30;;;;;;;;;31.50;27.00;;;;;10.10;44.13;102662.00;5072876;28;45992;-67
2022/03/23 04:36:56;;;;;;;;;32.00;26.75;;;;;10.11;44.58;102671.03;5070158;28;45595;-66
2022/03/23 04:39:22;;;;;;;;;29.75;24.50;;;;;10.08;44.55;102666.66;5076449;28;45315;-67
2022/03/23 04:41:47;;;;;;;;;31.25;25.75;;;;;10.04;44.08;102665.13;5076680;28;45408;-67
2022/03/23 04:44:12;;;;;;;;;29.50;26.50;;;;;10.04;44.36;102673.28;5073002;28;45365;-66
2022/03/23 04:46:38;;;;;;;;;29.75;25.75;;;;;10.05;44.11;102676.88;5067747;28;45361;-66
2022/03/23 04:49:03;;;;;;;;;28.00;27.25;;;;;10.00;44.08;102682.59;5074005;28;45807;-67
2022/03/23 04:51:30;;;;;;;;;26.50;26.50;;;;;9.98;44.69;102673.66;5066095;28;46828;-67
2022/03/23 04:53:56;;;;;;;;;36.25;30.00;;;;;9.99;44.40;102678.13;5064907;28;45392;-68
2022/03/23 04:56:22;;;;;;;;;27.75;27.50;;;;;9.96;44.65;102682.88;5067011;28;45215;-67
2022/03/23 04:58:47;;;;;;;;;26.00;24.75;;;;;9.93;43.21;102677.66;5065539;28;45390;-67
2022/03/23 05:01:12;;;;;;;;;28.75;23.50;;;;;9.98;44.26;102686.38;5074057;28;46174;-67
2022/03/23 05:03:38;;;;;;;;;33.75;25.00;;;;;10.00;44.24;102685.31;5068289;27;45247;-67
2022/03/23 05:06:03;;;;;;;;;28.00;25.75;;;;;9.96;44.06;102683.75;5070425;28;45358;-67
2022/03/23 05:08:29;;;;;;;;;32.50;28.00;;;;;10.00;44.12;102684.44;5064543;27;45614;-66
2022/03/23 05:10:54;;;;;;;;;25.25;23.75;;;;;9.97;44.47;102682.78;5063857;28;48223;-67
2022/03/23 05:13:19;;;;;;;;;29.75;25.00;;;;;9.96;43.75;102683.75;5069129;28;45211;-67
2022/03/23 05:15:45;;;;;;;;;28.75;25.75;;;;;9.95;44.57;102683.84;5064955;28;45243;-67
2022/03/23 05:18:10;;;;;;;;;28.25;23.25;;;;;9.91;44.94;102674.16;5069592;28;45321;-67
2022/03/23 05:20:35;;;;;;;;;31.50;25.75;;;;;9.93;44.22;102683.09;5064500;28;45174;-66
2022/03/23 05:23:02;;;;;;;;;28.50;24.75;;;;;9.92;45.52;102687.63;5073759;28;45335;-66
2022/03/23 05:25:27;;;;;;;;;32.25;24.50;;;;;9.88;45.67;102677.94;5071863;28;45334;-67
2022/03/23 05:27:53;;;;;;;;;26.50;24.25;;;;;9.88;45.18;102690.63;5079981;27;45242;-67
2022/03/23 05:30:18;;;;;;;;;27.25;26.25;;;;;9.86;45.01;102681.72;5084650;27;45495;-67
2022/03/23 05:32:44;;;;;;;;;31.50;28.25;;;;;9.79;46.70;102691.22;5071661;28;45654;-67
2022/03/23 05:35:11;;;;;;;;;30.00;24.50;;;;;9.69;46.12;102690.91;5064617;28;45575;-67
2022/03/23 05:37:36;;;;;;;;;27.50;22.75;;;;;9.67;46.14;102698.28;5076469;28;45459;-67
2022/03/23 05:40:06;;;;;;;;;31.25;27.00;;;;;9.63;46.29;102685.88;5083209;28;45700;-67
2022/03/23 05:42:31;;;;;;;;;29.50;24.25;;;;;9.63;46.08;102696.72;5073222;27;45371;-67
2022/03/23 05:44:56;;;;;;;;;25.25;23.50;;;;;9.65;46.16;102700.19;5063978;28;45352;-67
2022/03/23 05:47:22;;;;;;;;;26.00;23.00;;;;;9.61;46.25;102701.38;5071482;28;45397;-67
2022/03/23 05:49:48;;;;;;;;;32.25;28.00;;;;;9.58;46.03;102699.72;5066714;28;46189;-67
2022/03/23 05:52:13;;;;;;;;;26.00;22.75;;;;;9.55;46.16;102699.03;5062942;28;45626;-67
2022/03/23 05:54:39;;;;;;;;;32.50;25.00;;;;;9.54;46.90;102697.28;5067545;28;45329;-66
2022/03/23 05:57:05;;;;;;;;;28.25;25.00;;;;;9.52;46.87;102693.78;5066280;28;45479;-66
2022/03/23 05:59:31;;;;;;;;;29.25;24.50;;;;;9.51;46.79;102697.47;5064901;28;48164;-66
2022/03/23 06:02:00;;;;;;;;;35.50;30.00;;;;;9.51;46.88;102703.78;5065783;28;45257;-66
2022/03/23 06:04:25;;;;;;;;;34.00;30.50;;;;;9.52;47.34;102701.94;5073155;28;45434;-66
2022/03/23 06:06:52;;;;;;;;;40.00;36.50;;;;;9.53;46.98;102706.41;5065779;28;45287;-67
2022/03/23 06:09:18;;;;;;;;;41.00;33.00;;;;;9.55;47.45;102707.19;5062570;28;46958;-67
2022/03/23 06:11:44;;;;;;;;;44.75;36.50;;;;;9.58;47.42;102699.72;5064226;28;45479;-67
2022/03/23 06:14:09;;;;;;;;;48.25;37.50;;;;;9.62;47.60;102701.28;5068007;28;45260;-67
2022/03/23 06:16:34;;;;;;;;;47.50;36.50;;;;;9.69;47.71;102701.78;5064662;28;45248;-67
2022/03/23 06:19:00;;;;;;;;;47.75;38.75;;;;;9.75;47.62;102704.09;5064845;28;45420;-67
2022/03/23 06:21:25;;;;;;;;;43.75;36.75;;;;;9.73;48.03;102696.03;5074222;28;45446;-67
2022/03/23 06:23:51;;;;;;;;;49.75;41.50;;;;;9.85;48.22;102715.28;5066868;28;45462;-67
2022/03/23 06:26:16;;;;;;;;;54.25;42.00;;;;;9.82;48.96;102702.75;5076354;28;45503;-68
2022/03/23 06:28:42;;;;;;;;;54.75;44.00;;;;;9.85;49.07;102721.56;5064276;27;45339;-68
2022/03/23 06:31:08;;;;;;;;;54.50;42.25;;;;;9.87;49.58;102719.63;5075727;28;45156;-68
2022/03/23 06:33:33;;;;;;;;;55.50;44.25;;;;;9.93;49.67;102718.38;5069641;28;45674;-68
2022/03/23 06:35:59;;;;;;;;;59.75;44.00;;;;;9.94;49.41;102723.69;5075878;28;45669;-68
2022/03/23 06:38:24;;;;;;;;;56.00;44.25;;;;;9.99;49.90;102734.28;5069718;28;45568;-68
2022/03/23 06:40:49;;;;;;;;;56.25;44.50;;;;;10.00;49.77;102726.06;5063232;28;45279;-69
2022/03/23 06:43:15;;;;;;;;;64.00;48.25;;;;;10.08;49.60;102736.44;5068968;28;45287;-68
2022/03/23 06:45:42;;;;;;;;;59.00;46.25;;;;;10.20;49.71;102740.22;5099079;27;45418;-68
2022/03/23 06:48:08;;;;;;;;;56.75;44.75;;;;;10.33;49.71;102746.63;5067057;28;47754;-68
2022/03/23 06:50:34;;;;;;;;;50.75;41.50;;;;;10.32;48.71;102739.44;5080499;28;45358;-68
2022/03/23 06:53:00;;;;;;;;;52.00;38.50;;;;;10.52;48.28;102748.03;5067420;27;45469;-68
2022/03/23 06:55:26;;;;;;;;;56.00;42.75;;;;;10.66;47.98;102744.47;5061888;28;45461;-67
2022/03/23 06:57:51;;;;;;;;;34.50;28.00;;;;;10.85;46.67;102742.25;5064539;28;45486;-67
2022/03/23 07:00:17;;;;;;;;;49.25;38.00;;;;;11.01;46.74;102744.84;5061299;28;45351;-67
2022/03/23 07:02:44;;;;;;;;;63.25;46.50;;;;;11.22;46.49;102756.13;5066681;28;45507;-67
2022/03/23 07:05:12;;;;;;;;;58.25;43.75;;;;;11.30;46.01;102760.06;5065668;28;45358;-67
2022/03/23 07:07:38;;;;;;;;;54.50;39.75;;;;;11.39;45.83;102760.41;5064208;28;46409;-67
2022/03/23 07:10:04;;;;;;;;;52.50;43.00;;;;;11.57;45.43;102760.00;5060476;28;45788;-67
2022/03/23 07:12:30;;;;;;;;;55.75;43.50;;;;;11.83;44.66;102760.97;5062909;28;45324;-67
2022/03/23 07:14:56;;;;;;;;;48.50;41.00;;;;;12.12;44.09;102756.19;5080597;28;45275;-68
2022/03/23 07:17:21;;;;;;;;;58.50;45.25;;;;;12.11;44.22;102751.72;5069275;28;45360;-67
2022/03/23 07:19:47;;;;;;;;;58.75;44.00;;;;;12.23;43.92;102761.72;5073555;28;45193;-67
2022/03/23 07:22:14;;;;;;;;;53.75;44.00;;;;;12.23;44.09;102761.72;5064792;28;45341;-67
2022/03/23 07:24:39;;;;;;;;;48.25;39.50;;;;;12.37;44.13;102772.50;5062149;28;45460;-67
2022/03/23 07:27:05;;;;;;;;;56.50;41.75;;;;;12.46;42.96;102766.38;5066370;28;45694;-68
2022/03/23 07:29:30;;;;;;;;;48.50;41.75;;;;;12.68;42.42;102775.72;5078444;27;45504;-68
2022/03/23 07:31:55;;;;;;;;;53.50;42.25;;;;;12.88;41.67;102776.00;5064884;28;45315;-69
2022/03/23 07:34:21;;;;;;;;;50.50;39.00;;;;;12.89;41.15;102779.59;5069785;28;45243;-69
2022/03/23 07:36:47;;;;;;;;;46.50;37.00;;;;;13.00;41.55;102774.22;5064923;28;46101;-69
2022/03/23 07:39:20;;;;;;;;;50.00;37.50;;;;;13.00;39.84;102770.63;5070116;27;45440;-69
2022/03/23 07:41:52;;;;;;;;;46.00;36.25;;;;;13.04;39.95;102781.19;5067245;27;45405;-69
2022/03/23 07:44:18;;;;;;;;;43.00;37.25;;;;;13.17;40.08;102773.84;5074440;28;45176;-69
2022/03/23 07:46:47;;;;;;;;;41.75;36.25;;;;;13.28;40.24;102775.75;5066576;28;47359;-69
2022/03/23 07:49:14;;;;;;;;;40.25;35.00;;;;;13.40;39.69;102780.28;5069756;28;45320;-69
2022/03/23 07:51:39;;;;;;;;;15.25;11.50;;;;;13.45;39.38;102782.63;5064020;28;45253;-68
2022/03/23 07:54:06;;;;;;;;;31.00;28.00;;;;;13.58;38.93;102772.53;5061413;28;45258;-68
2022/03/23 07:56:32;;;;;;;;;39.00;33.00;;;;;13.63;37.95;102771.19;5065136;28;45461;-68
2022/03/23 07:58:58;;;;;;;;;33.75;28.25;;;;;13.74;38.32;102774.91;5062295;28;45320;-69
2022/03/23 08:01:23;;;;;;;;;38.50;33.00;;;;;13.98;37.57;102771.16;5078981;27;45253;-69
2022/03/23 08:03:49;;;;;;;;;33.25;31.00;;;;;14.28;37.37;102777.91;5061907;28;45351;-69
2022/03/23 08:06:14;;;;;;;;;34.00;31.50;;;;;14.53;37.12;102776.84;5068222;28;45411;-69
2022/03/23 08:08:39;;;;;;;;;38.50;33.50;;;;;14.80;35.85;102786.38;5061776;28;45389;-68
2022/03/23 08:11:04;;;;;;;;;38.50;33.50;;;;;14.97;34.64;102792.31;5062219;28;45335;-68
2022/03/23 08:13:30;;;;;;;;;43.75;32.75;;;;;15.18;35.11;102796.88;5068878;27;45261;-68
2022/03/23 08:15:56;;;;;;;;;31.50;29.50;;;;;15.40;34.19;102795.94;5080652;28;45509;-68
2022/03/23 08:18:21;;;;;;;;;28.25;27.75;;;;;15.78;35.18;102786.34;5066186;27;45476;-68
2022/03/23 08:20:50;;;;;;;;;32.25;31.25;;;;;16.15;33.88;102798.53;5060766;28;45426;-69
2022/03/23 08:23:16;;;;;;;;;36.25;29.75;;;;;16.37;33.23;102792.03;5071175;28;45340;-68
2022/03/23 08:25:43;;;;;;;;;34.25;32.75;;;;;16.66;33.87;102793.06;5073838;28;46884;-68
2022/03/23 08:28:10;;;;;;;;;37.50;31.75;;;;;16.74;32.43;102795.13;5080038;27;45456;-68
2022/03/23 08:30:36;;;;;;;;;30.25;27.50;;;;;16.85;32.24;102792.28;5082022;28;45322;-68
2022/03/23 08:33:03;;;;;;;;;33.00;30.00;;;;;17.08;31.96;102791.06;5067217;28;45664;-68
2022/03/23 08:35:29;;;;;;;;;38.50;32.75;;;;;17.46;31.26;102792.94;5061466;28;46094;-68
2022/03/23 08:37:55;;;;;;;;;34.50;31.25;;;;;17.41;30.21;102795.28;5072931;28;45436;-67
2022/03/23 08:40:20;;;;;;;;;23.50;21.50;;;;;17.64;31.59;102795.91;5061738;28;45384;-68
2022/03/23 08:42:46;;;;;;;;;36.75;30.75;;;;;17.88;28.97;102788.06;5073922;28;45389;-67
2022/03/23 08:45:12;;;;;;;;;41.50;33.75;;;;;17.95;27.94;102792.97;5065279;28;46425;-69
2022/03/23 08:47:39;;;;;;;;;14.25;9.25;;;;;17.88;27.93;102788.06;5074750;28;45326;-68
2022/03/23 08:50:07;;;;;;;;;31.75;30.00;;;;;18.14;30.64;102792.94;5066031;28;45219;-68
2022/03/23 08:52:34;;;;;;;;;37.50;30.50;;;;;18.56;28.34;102794.28;5067573;28;45349;-69
2022/03/23 08:55:00;;;;;;;;;25.50;24.50;;;;;18.89;28.94;102789.22;5063882;28;46199;-69
2022/03/23 08:57:25;;;;;;;;;24.75;19.25;;;;;18.78;27.13;102786.66;5066854;28;45444;-68
2022/03/23 08:59:50;;;;;;;;;26.50;24.75;;;;;18.89;28.27;102786.47;5066549;28;45395;-69
2022/03/23 09:02:16;;;;;;;;;31.50;28.00;;;;;19.23;26.97;102786.66;5077169;28;45347;-69
2022/03/23 09:04:41;;;;;;;;;30.75;24.25;;;;;19.57;27.81;102795.16;5068051;28;45690;-69
2022/03/23 09:07:06;;;;;;;;;35.75;30.00;;;;;19.75;26.17;102788.59;5067274;28;45506;-70
2022/03/23 09:09:32;;;;;;;;;25.75;24.00;;;;;19.83;25.29;102791.44;5094822;27;45306;-69
2022/03/23 09:11:57;;;;;;;;;27.00;25.00;;;;;19.84;25.98;102786.78;5078797;28;45249;-68
2022/03/23 09:14:23;;;;;;;;;29.25;27.25;;;;;19.91;25.65;102792.53;5064558;28;46566;-69
2022/03/23 09:16:49;;;;;;;;;27.75;26.25;;;;;20.09;27.28;102785.94;5066129;28;45177;-69
2022/03/23 09:19:19;;;;;;;;;26.00;25.75;;;;;20.40;25.05;102793.75;5077343;28;45320;-68
2022/03/23 09:21:48;;;;;;;;;29.25;27.50;;;;;20.55;24.72;102783.84;5064887;28;45499;-69
2022/03/23 09:24:13;;;;;;;;;32.50;28.50;;;;;20.52;24.63;102787.81;5072796;28;45539;-68
2022/03/23 09:26:39;;;;;;;;;29.75;25.75;;;;;20.68;24.74;102792.53;5066925;28;45336;-69
2022/03/23 09:29:06;;;;;;;;;33.50;27.00;;;;;20.87;26.06;102785.91;5087715;27;45265;-69
2022/03/23 09:31:32;;;;;;;;;24.50;24.50;;;;;21.09;25.33;102789.97;5078230;28;45472;-69
2022/03/23 09:33:57;;;;;;;;;14.25;11.75;;;;;21.12;24.21;102776.66;5072816;28;45400;-69
2022/03/23 09:39:06;;;;;;;;;26.75;22.75;;;;;20.94;22.13;102787.84;5073448;28;45493;-69
2022/03/23 09:41:32;;;;;;;;;25.50;24.00;;;;;20.94;22.39;102796.13;5067142;28;45239;-69
2022/03/23 09:43:59;;;;;;;;;22.25;22.25;;;;;21.01;23.87;102793.56;5063955;28;47263;-68
2022/03/23 09:46:24;;;;;;;;;27.75;25.75;;;;;20.81;23.01;102787.44;5066179;28;45343;-69
2022/03/23 09:48:49;;;;;;;;;23.50;21.00;;;;;21.13;21.98;102794.97;5066868;28;45429;-70
2022/03/23 09:51:17;;;;;;;;;18.67;15.33;;;;;21.22;23.75;102798.66;5065702;28;45524;-68
2022/03/23 09:53:42;;;;;;;;;21.67;18.33;;;;;21.48;23.63;102796.63;5067868;28;45459;-69
2022/03/23 09:56:08;;;;;;;;;24.75;21.75;;;;;21.42;21.65;102788.16;5064362;28;45289;-68
2022/03/23 09:58:34;;;;;;;;;18.75;16.75;;;;;21.10;21.45;102791.69;5068388;28;45299;-68
2022/03/23 10:01:00;;;;;;;;;24.75;21.75;;;;;21.27;23.41;102794.34;5074078;28;45598;-68
2022/03/23 10:03:43;;;;;;;;;17.00;17.00;;;;;21.69;22.91;102797.03;5068344;28;46474;-68
2022/03/23 10:06:24;;;;;;;;;24.50;18.75;;;;;21.80;21.26;102784.75;5069103;28;45455;-68
2022/03/23 10:09:09;;;;;;;;;22.67;21.67;;;;;21.63;22.34;102792.16;5075952;28;45370;-68
2022/03/23 10:12:11;;;;;;;;;19.75;14.50;;;;;21.54;22.38;102795.09;5066472;28;45430;-69
2022/03/23 10:15:25;;;;;;;;;24.75;22.50;;;;;21.67;22.29;102801.88;5065378;28;45498;-68
2022/03/23 10:18:11;;;;;;;;;27.25;23.50;;;;;22.10;21.75;102785.97;5070165;28;45521;-68
2022/03/23 10:20:37;;;;;;;;;19.50;19.00;;;;;22.25;22.00;102783.34;5070003;28;45329;-68
2022/03/23 10:23:06;;;;;;;;;22.25;18.75;;;;;22.37;22.31;102777.25;5068935;28;46338;-67
2022/03/23 10:25:31;;;;;;;;;24.25;22.25;;;;;22.62;21.38;102779.97;5069649;28;45409;-68
2022/03/23 10:27:58;;;;;;;;;27.50;25.00;;;;;22.78;21.17;102777.16;5077895;27;45869;-68
2022/03/23 10:30:33;;;;;;;;;27.00;22.25;;;;;22.82;21.53;102781.28;5083825;28;45523;-68
2022/03/23 10:32:58;;;;;;;;;21.00;18.00;;;;;22.78;21.96;102777.16;5069821;28;45401;-67
2022/03/23 10:35:35;;;;;;;;;22.00;20.50;;;;;22.63;21.58;102763.16;5063507;28;45418;-68
2022/03/23 10:38:16;;;;;;;;;23.50;22.00;;;;;22.79;20.83;102770.59;5074945;28;45440;-68
2022/03/23 10:40:43;;;;;;;;;21.25;21.25;;;;;22.77;21.23;102764.34;5063436;28;45326;-68
2022/03/23 10:43:12;;;;;;;;;24.75;18.75;;;;;22.79;21.22;102762.28;5075014;27;45454;-68
2022/03/23 10:45:38;;;;;;;;;23.25;22.00;;;;;22.81;20.40;102763.81;5063355;28;46470;-68
2022/03/23 10:48:09;;;;;;;;;21.75;21.75;;;;;22.84;20.94;102762.59;5065191;28;45523;-68
2022/03/23 10:50:35;;;;;;;;;22.00;20.75;;;;;23.06;20.69;102759.00;5063510;28;45310;-68
2022/03/23 10:53:05;;;;;;;;;24.25;22.25;;;;;23.22;21.36;102749.72;5068704;28;45440;-68
2022/03/23 10:55:35;;;;;;;;;27.75;24.50;;;;;23.32;21.32;102753.13;5062996;28;45753;-68
2022/03/23 10:58:00;;;;;;;;;25.75;21.75;;;;;23.15;20.40;102749.59;5068231;28;45425;-68
2022/03/23 11:00:32;;;;;;;;;29.00;23.75;;;;;22.84;19.82;102751.50;5081536;28;45499;-68
2022/03/23 11:02:58;;;;;;;;;25.25;25.25;;;;;22.97;21.08;102751.78;5069690;28;45196;-68
2022/03/23 11:05:37;;;;;;;;;24.50;22.25;;;;;22.98;21.22;102742.41;5065208;28;48341;-68
2022/03/23 11:08:18;;;;;;;;;22.75;22.75;;;;;22.48;19.80;102749.19;5064642;28;45484;-67
2022/03/23 11:16:38;;;;;;;;;21.50;21.00;;;;;22.94;20.74;102735.50;5062620;28;45854;-69
2022/03/23 11:19:12;;;;;;;;;25.00;19.00;;;;;22.99;20.54;102726.66;5068795;28;45436;-70
2022/03/23 11:22:00;;;;;;;;;22.50;21.00;;;;;23.01;19.63;102736.53;5068381;28;45327;-66
2022/03/23 11:24:27;;;;;;;;;23.75;20.75;;;;;23.04;19.80;102730.59;5066864;28;45473;-68
2022/03/23 11:26:55;;;;;;;;;23.50;20.50;;;;;23.26;19.69;102715.03;5065328;28;47069;-67